createdAt,value
2022-11-07T00:01:48.889Z,9.10
2022-11-07T00:04:17.881Z,9.00
2022-11-07T00:06:46.604Z,9.00
2022-11-07T00:09:16.361Z,9.00
2022-11-07T00:11:44.537Z,9.00
2022-11-07T00:14:13.601Z,9.10
2022-11-07T00:16:41.764Z,9.20
2022-11-07T00:19:10.362Z,9.20
2022-11-07T00:21:39.694Z,9.20
2022-11-07T00:24:09.115Z,9.30
2022-11-07T00:26:39.055Z,9.30
2022-11-07T00:29:07.544Z,9.30
2022-11-07T00:31:35.776Z,9.30
2022-11-07T00:34:04.104Z,9.30
2022-11-07T00:36:32.349Z,9.40
2022-11-07T00:39:00.897Z,9.40
2022-11-07T00:41:29.549Z,9.40
2022-11-07T00:43:59.186Z,9.40
2022-11-07T00:46:27.425Z,9.50
2022-11-07T00:48:55.592Z,9.40
2022-11-07T00:51:25.842Z,9.50
2022-11-07T00:53:54.886Z,9.50
2022-11-07T00:56:25.078Z,9.60
2022-11-07T00:58:58.685Z,9.50
2022-11-07T01:01:29.096Z,9.50
2022-11-07T01:04:15.397Z,9.50
2022-11-07T01:06:45.694Z,9.60
2022-11-07T01:09:15.494Z,9.60
2022-11-07T01:11:44.996Z,9.60
2022-11-07T01:14:16.217Z,9.70
2022-11-07T01:16:44.915Z,9.70
2022-11-07T01:19:13.825Z,9.60
2022-11-07T01:21:43.216Z,9.60
2022-11-07T01:24:13.440Z,9.60
2022-11-07T01:26:42.910Z,9.50
2022-11-07T01:29:11.494Z,9.50
2022-11-07T01:31:42.313Z,9.30
2022-11-07T01:34:10.509Z,9.30
2022-11-07T01:36:38.935Z,9.20
2022-11-07T01:39:07.620Z,9.30
2022-11-07T01:41:38.520Z,9.20
2022-11-07T01:44:45.577Z,9.20
2022-11-07T01:47:15.156Z,9.20
2022-11-07T01:49:44.559Z,9.20
2022-11-07T01:52:18.377Z,9.30
2022-11-07T01:54:50.172Z,9.30
2022-11-07T01:57:20.720Z,9.20
2022-11-07T01:59:49.387Z,9.20
2022-11-07T02:02:18.853Z,9.20
2022-11-07T02:04:47.221Z,9.20
2022-11-07T02:07:17.993Z,9.20
2022-11-07T02:09:46.434Z,9.20
2022-11-07T02:12:14.908Z,9.20
2022-11-07T02:14:42.998Z,9.20
2022-11-07T02:17:11.587Z,9.20
2022-11-07T02:19:42.739Z,9.10
2022-11-07T02:22:14.616Z,9.10
2022-11-07T02:24:43.948Z,9.10
2022-11-07T02:27:13.968Z,9.20
2022-11-07T02:29:43.645Z,9.20
2022-11-07T02:32:12.832Z,9.20
2022-11-07T02:34:40.865Z,9.20
2022-11-07T02:37:12.732Z,9.20
2022-11-07T02:39:40.685Z,9.20
2022-11-07T02:42:10.601Z,9.20
2022-11-07T02:44:38.564Z,9.10
2022-11-07T02:47:06.555Z,9.10
2022-11-07T02:49:34.622Z,9.20
2022-11-07T02:52:02.631Z,8.90
2022-11-07T02:54:30.584Z,8.90
2022-11-07T02:56:58.536Z,8.80
2022-11-07T02:59:27.853Z,8.70
2022-11-07T03:01:55.987Z,8.70
2022-11-07T03:04:24.880Z,8.60
2022-11-07T03:06:52.998Z,8.50
2022-11-07T03:09:20.969Z,8.40
2022-11-07T03:11:48.996Z,8.40
2022-11-07T03:14:17.114Z,8.60
2022-11-07T03:16:46.496Z,8.30
2022-11-07T03:19:14.455Z,8.30
2022-11-07T03:21:42.413Z,8.20
2022-11-07T03:24:10.413Z,8.20
2022-11-07T03:26:38.331Z,8.10
2022-11-07T03:29:06.288Z,8.10
2022-11-07T03:31:34.862Z,8.00
2022-11-07T03:34:04.347Z,8.00
2022-11-07T03:36:32.324Z,8.00
2022-11-07T03:39:00.354Z,8.10
2022-11-07T03:41:28.272Z,8.00
2022-11-07T03:43:56.195Z,8.10
2022-11-07T03:46:24.128Z,8.20
2022-11-07T03:48:52.045Z,8.20
2022-11-07T03:51:21.441Z,8.20
2022-11-07T03:53:49.410Z,8.20
2022-11-07T03:56:17.385Z,8.20
2022-11-07T03:58:45.357Z,8.30
2022-11-07T04:01:13.551Z,8.20
2022-11-07T04:03:41.586Z,8.20
2022-11-07T04:06:09.668Z,8.20
2022-11-07T04:08:39.064Z,8.20
2022-11-07T04:11:07.148Z,8.10
2022-11-07T04:13:52.316Z,8.10
2022-11-07T04:16:38.055Z,8.10
2022-11-07T04:19:05.972Z,8.10
2022-11-07T04:21:33.896Z,8.00
2022-11-07T04:24:03.242Z,8.00
2022-11-07T04:26:50.884Z,8.00
2022-11-07T04:29:18.845Z,7.90
2022-11-07T04:31:46.756Z,7.90
2022-11-07T04:34:14.693Z,8.00
2022-11-07T04:36:43.125Z,8.10
2022-11-07T04:39:12.463Z,8.10
2022-11-07T04:41:40.372Z,8.20
2022-11-07T04:44:08.398Z,8.10
2022-11-07T04:46:36.388Z,8.10
2022-11-07T04:49:04.378Z,8.10
2022-11-07T04:51:32.312Z,8.10
2022-11-07T04:54:00.300Z,8.10
2022-11-07T04:56:34.310Z,8.00
2022-11-07T04:59:02.563Z,8.00
2022-11-07T05:01:30.619Z,7.90
2022-11-07T05:03:58.944Z,7.80
2022-11-07T05:06:26.987Z,7.80
2022-11-07T05:08:54.927Z,7.80
2022-11-07T05:11:22.846Z,7.70
2022-11-07T05:13:52.169Z,7.40
2022-11-07T05:16:20.161Z,7.60
2022-11-07T05:18:48.121Z,7.60
2022-11-07T05:21:16.044Z,7.60
2022-11-07T05:23:44.010Z,7.60
2022-11-07T05:26:11.920Z,7.60
2022-11-07T05:28:40.131Z,7.60
2022-11-07T05:31:09.817Z,7.60
2022-11-07T05:33:37.862Z,7.60
2022-11-07T05:36:12.907Z,7.50
2022-11-07T05:38:41.382Z,7.50
2022-11-07T05:41:09.456Z,7.50
2022-11-07T05:43:38.533Z,7.50
2022-11-07T05:46:06.772Z,7.40
2022-11-07T05:48:36.310Z,7.30
2022-11-07T05:51:04.348Z,7.20
2022-11-07T05:53:32.800Z,7.20
2022-11-07T05:56:01.499Z,7.20
2022-11-07T05:58:29.552Z,7.10
2022-11-07T06:01:01.530Z,7.10
2022-11-07T06:03:29.533Z,7.10
2022-11-07T06:05:58.924Z,7.00
2022-11-07T06:08:26.915Z,7.00
2022-11-07T06:10:54.868Z,7.00
2022-11-07T06:13:23.123Z,7.10
2022-11-07T06:15:51.071Z,7.10
2022-11-07T06:18:20.453Z,6.90
2022-11-07T06:20:48.398Z,7.20
2022-11-07T06:23:18.203Z,7.20
2022-11-07T06:25:46.534Z,7.20
2022-11-07T06:28:15.176Z,7.30
2022-11-07T06:30:43.145Z,7.30
2022-11-07T06:33:14.023Z,7.40
2022-11-07T06:35:42.501Z,7.50
2022-11-07T06:38:11.383Z,7.60
2022-11-07T06:40:41.339Z,7.70
2022-11-07T06:43:10.600Z,7.70
2022-11-07T06:45:38.727Z,7.70
2022-11-07T06:48:06.904Z,7.70
2022-11-07T06:50:35.033Z,7.80
2022-11-07T06:53:03.616Z,7.90
2022-11-07T06:55:31.664Z,7.90
2022-11-07T06:58:01.707Z,8.10
2022-11-07T07:00:30.208Z,8.30
2022-11-07T07:02:59.165Z,8.90
2022-11-07T07:05:27.329Z,9.60
2022-11-07T07:07:55.318Z,10.30
2022-11-07T07:10:24.918Z,10.50
2022-11-07T07:12:52.863Z,10.40
2022-11-07T07:15:22.212Z,10.20
2022-11-07T07:17:50.269Z,10.10
2022-11-07T07:20:18.273Z,10.10
2022-11-07T07:22:49.174Z,10.30
2022-11-07T07:25:19.572Z,10.70
2022-11-07T07:27:47.523Z,11.10
2022-11-07T07:30:15.497Z,11.60
2022-11-07T07:32:44.800Z,11.80
2022-11-07T07:35:12.730Z,11.70
2022-11-07T07:37:40.701Z,11.90
2022-11-07T07:40:09.518Z,12.20
2022-11-07T07:42:41.451Z,12.40
2022-11-07T07:45:10.237Z,12.80
2022-11-07T07:47:38.245Z,12.90
2022-11-07T07:50:08.532Z,12.50
2022-11-07T07:52:36.516Z,12.40
2022-11-07T07:55:04.488Z,12.40
2022-11-07T07:57:32.419Z,12.50
2022-11-07T08:00:00.320Z,12.70
2022-11-07T08:02:28.315Z,12.50
2022-11-07T08:04:56.333Z,12.30
2022-11-07T08:07:25.668Z,12.50
2022-11-07T08:09:53.600Z,13.50
2022-11-07T08:12:21.505Z,14.60
2022-11-07T08:14:49.455Z,15.20
2022-11-07T08:17:17.364Z,15.70
2022-11-07T08:19:45.321Z,16.00
2022-11-07T08:22:13.260Z,15.90
2022-11-07T08:24:43.301Z,15.20
2022-11-07T08:27:11.233Z,14.60
2022-11-07T08:29:39.142Z,14.40
2022-11-07T08:32:07.126Z,14.30
2022-11-07T08:34:35.035Z,14.40
2022-11-07T08:37:02.989Z,14.10
2022-11-07T08:39:30.935Z,14.60
2022-11-07T08:42:00.252Z,15.20
2022-11-07T08:44:28.170Z,15.40
2022-11-07T08:46:56.381Z,15.70
2022-11-07T08:49:24.295Z,16.10
2022-11-07T08:51:52.204Z,16.70
2022-11-07T08:54:21.393Z,16.50
2022-11-07T08:56:49.614Z,16.80
2022-11-07T08:59:19.569Z,16.90
2022-11-07T09:02:26.567Z,16.40
2022-11-07T09:04:35.511Z,16.10
2022-11-07T09:07:03.532Z,16.10
2022-11-07T09:09:31.545Z,16.10
2022-11-07T09:11:59.495Z,15.90
2022-11-07T09:14:28.833Z,15.90
2022-11-07T09:16:56.803Z,16.30
2022-11-07T09:19:24.711Z,16.70
2022-11-07T09:21:52.678Z,17.10
2022-11-07T09:24:20.620Z,17.80
2022-11-07T09:26:48.837Z,18.20
2022-11-07T09:29:16.778Z,18.30
2022-11-07T09:31:46.091Z,18.70
2022-11-07T09:34:14.042Z,19.10
2022-11-07T09:36:42.008Z,19.30
2022-11-07T09:39:10.078Z,19.70
2022-11-07T09:41:46.030Z,19.70
2022-11-07T09:44:17.278Z,19.30
2022-11-07T09:46:54.076Z,19.00
2022-11-07T09:49:24.557Z,19.30
2022-11-07T09:51:55.533Z,20.20
2022-11-07T09:54:26.044Z,20.90
2022-11-07T09:56:55.387Z,20.50
2022-11-07T09:59:25.830Z,20.00
2022-11-07T10:01:55.637Z,20.70
2022-11-07T10:04:26.076Z,20.10
2022-11-07T10:06:57.252Z,19.90
2022-11-07T10:09:28.315Z,20.30
2022-11-07T10:12:00.966Z,20.30
2022-11-07T10:14:36.415Z,20.50
2022-11-07T10:17:11.661Z,20.70
2022-11-07T10:20:00.300Z,20.70
2022-11-07T10:22:34.717Z,21.00
2022-11-07T10:25:12.047Z,22.10
2022-11-07T10:27:40.380Z,22.90
2022-11-07T10:30:15.951Z,23.20
2022-11-07T10:32:50.573Z,23.80
2022-11-07T10:35:24.665Z,24.10
2022-11-07T10:37:54.884Z,24.10
2022-11-07T10:40:23.344Z,24.30
2022-11-07T10:42:52.003Z,24.00
2022-11-07T10:45:19.945Z,23.20
2022-11-07T10:47:59.257Z,22.80
2022-11-07T10:50:27.808Z,21.50
2022-11-07T10:52:56.300Z,20.50
2022-11-07T10:55:24.683Z,20.20
2022-11-07T10:57:54.474Z,20.30
2022-11-07T11:00:23.792Z,20.60
2022-11-07T11:02:52.380Z,20.90
2022-11-07T11:05:26.216Z,20.90
2022-11-07T11:07:56.409Z,21.30
2022-11-07T11:10:25.236Z,21.70
2022-11-07T11:12:53.196Z,22.70
2022-11-07T11:15:21.992Z,23.20
2022-11-07T11:17:58.342Z,22.40
2022-11-07T11:20:35.870Z,21.60
2022-11-07T11:23:05.055Z,20.90
2022-11-07T11:25:33.273Z,20.40
2022-11-07T11:28:04.079Z,20.60
2022-11-07T11:30:33.936Z,20.60
2022-11-07T11:33:04.524Z,20.50
2022-11-07T11:35:41.338Z,20.20
2022-11-07T11:38:13.893Z,20.30
2022-11-07T11:40:43.448Z,20.30
2022-11-07T11:43:18.612Z,21.60
2022-11-07T11:45:52.030Z,22.80
2022-11-07T11:48:24.682Z,24.10
2022-11-07T11:50:57.004Z,25.00
2022-11-07T11:53:24.995Z,25.70
2022-11-07T11:55:57.155Z,26.30
2022-11-07T11:58:33.578Z,26.80
2022-11-07T12:01:04.612Z,27.40
2022-11-07T12:03:57.105Z,28.10
2022-11-07T12:06:29.217Z,27.90
2022-11-07T12:09:03.449Z,28.40
2022-11-07T12:11:34.645Z,28.40
2022-11-07T12:14:06.102Z,28.90
2022-11-07T12:16:36.622Z,29.70
2022-11-07T12:19:13.358Z,29.80
2022-11-07T12:21:50.276Z,30.30
2022-11-07T12:24:24.448Z,30.50
2022-11-07T12:26:58.038Z,31.20
2022-11-07T12:29:33.701Z,32.00
2022-11-07T12:32:14.641Z,32.40
2022-11-07T12:34:52.285Z,33.20
2022-11-07T12:37:29.310Z,33.80
2022-11-07T12:40:08.118Z,34.20
2022-11-07T12:42:43.699Z,34.20
2022-11-07T12:45:16.936Z,34.30
2022-11-07T12:47:52.681Z,34.40
2022-11-07T12:50:26.783Z,34.10
2022-11-07T12:53:03.642Z,33.90
2022-11-07T12:55:34.507Z,33.90
2022-11-07T12:58:03.633Z,33.90
2022-11-07T13:00:31.893Z,33.60
2022-11-07T13:03:12.606Z,33.40
2022-11-07T13:05:48.659Z,32.80
2022-11-07T13:08:22.016Z,33.00
2022-11-07T13:10:53.442Z,32.90
2022-11-07T13:13:26.126Z,32.60
2022-11-07T13:16:14.639Z,32.50
2022-11-07T13:21:14.824Z,32.60
2022-11-07T13:23:45.026Z,33.40
2022-11-07T13:26:45.169Z,33.90
2022-11-07T13:29:02.154Z,34.10
2022-11-07T13:31:31.709Z,34.00
2022-11-07T13:34:10.169Z,34.10
2022-11-07T13:36:38.285Z,33.80
2022-11-07T13:39:08.874Z,34.00
2022-11-07T13:41:37.255Z,34.30
2022-11-07T13:44:06.541Z,34.90
2022-11-07T13:46:36.420Z,35.20
2022-11-07T13:49:06.859Z,35.50
2022-11-07T13:51:36.338Z,35.70
2022-11-07T13:54:11.438Z,35.80
2022-11-07T13:56:42.097Z,36.00
2022-11-07T13:59:13.310Z,36.20
2022-11-07T14:01:42.914Z,36.30
2022-11-07T14:04:14.987Z,36.20
2022-11-07T14:06:43.087Z,35.90
2022-11-07T14:09:15.182Z,35.60
2022-11-07T14:11:43.282Z,35.60
2022-11-07T14:14:11.303Z,35.60
2022-11-07T14:16:39.646Z,35.50
2022-11-07T14:19:08.640Z,35.30
2022-11-07T14:21:37.827Z,35.10
2022-11-07T14:24:20.193Z,34.80
2022-11-07T14:26:58.054Z,34.50
2022-11-07T14:29:26.073Z,34.20
2022-11-07T14:31:54.136Z,33.90
2022-11-07T14:34:23.088Z,33.60
2022-11-07T14:36:51.592Z,33.30
2022-11-07T14:39:20.273Z,32.90
2022-11-07T14:41:49.935Z,32.20
2022-11-07T14:44:20.100Z,31.50
2022-11-07T14:46:48.383Z,30.50
2022-11-07T14:49:21.079Z,29.50
2022-11-07T14:51:49.222Z,28.40
2022-11-07T14:54:18.871Z,27.40
2022-11-07T14:56:48.710Z,26.60
2022-11-07T14:59:18.820Z,26.00
2022-11-07T15:01:52.248Z,25.40
2022-11-07T15:04:27.918Z,24.80
2022-11-07T15:06:55.961Z,24.30
2022-11-07T15:09:32.225Z,23.80
2022-11-07T15:12:01.557Z,23.30
2022-11-07T15:14:33.397Z,22.90
2022-11-07T15:17:04.178Z,22.40
2022-11-07T15:19:33.296Z,22.00
2022-11-07T15:22:02.081Z,21.60
2022-11-07T15:24:34.422Z,21.20
2022-11-07T15:27:03.055Z,20.80
2022-11-07T15:29:37.085Z,20.40
2022-11-07T15:32:06.414Z,20.00
2022-11-07T15:35:00.475Z,19.50
2022-11-07T15:37:23.620Z,19.00
2022-11-07T15:39:51.602Z,18.40
2022-11-07T15:42:19.996Z,17.90
2022-11-07T15:44:49.344Z,17.50
2022-11-07T15:47:19.073Z,17.10
2022-11-07T15:49:47.283Z,16.60
2022-11-07T15:52:15.907Z,16.30
2022-11-07T15:54:43.865Z,16.10
2022-11-07T15:57:12.546Z,15.80
2022-11-07T15:59:40.560Z,15.60
2022-11-07T16:02:13.991Z,15.40
2022-11-07T16:04:42.102Z,15.20
2022-11-07T16:07:10.357Z,15.00
2022-11-07T16:09:38.310Z,14.80
2022-11-07T16:12:06.357Z,14.70
2022-11-07T16:14:43.906Z,14.40
2022-11-07T16:17:16.498Z,14.30
2022-11-07T16:19:44.673Z,14.10
2022-11-07T16:22:13.325Z,13.90
2022-11-07T16:24:41.290Z,13.70
2022-11-07T16:27:09.276Z,13.60
2022-11-07T16:29:37.269Z,13.50
2022-11-07T16:32:05.355Z,13.40
2022-11-07T16:34:34.689Z,13.30
2022-11-07T16:37:02.599Z,13.20
2022-11-07T16:39:31.690Z,13.10
2022-11-07T16:41:59.660Z,12.90
2022-11-07T16:44:27.671Z,12.80
2022-11-07T16:46:56.075Z,12.70
2022-11-07T16:49:26.209Z,12.70
2022-11-07T16:51:56.198Z,12.60
2022-11-07T16:54:24.526Z,12.50
2022-11-07T16:56:53.129Z,12.50
2022-11-07T16:59:22.103Z,12.40
2022-11-07T17:01:50.639Z,12.30
2022-11-07T17:04:18.985Z,12.40
2022-11-07T17:06:47.733Z,12.30
2022-11-07T17:09:20.394Z,12.20
2022-11-07T17:11:49.128Z,12.10
2022-11-07T17:14:17.099Z,12.10
2022-11-07T17:16:47.350Z,12.00
2022-11-07T17:19:16.065Z,11.90
2022-11-07T17:21:48.417Z,11.90
2022-11-07T17:24:18.008Z,11.90
2022-11-07T17:26:45.945Z,11.80
2022-11-07T17:29:14.757Z,11.80
2022-11-07T17:31:43.670Z,11.80
2022-11-07T17:34:11.691Z,11.80
2022-11-07T17:36:40.545Z,11.70
2022-11-07T17:39:11.382Z,11.70
2022-11-07T17:41:41.543Z,11.60
2022-11-07T17:44:09.917Z,11.60
2022-11-07T17:46:38.688Z,11.60
2022-11-07T17:49:07.962Z,11.50
2022-11-07T17:51:36.867Z,11.40
2022-11-07T17:54:05.348Z,11.40
2022-11-07T17:56:34.569Z,11.30
2022-11-07T17:59:05.224Z,11.20
2022-11-07T18:01:34.179Z,11.20
2022-11-07T18:04:02.724Z,11.20
2022-11-07T18:06:30.807Z,11.30
2022-11-07T18:09:00.416Z,11.30
2022-11-07T18:11:29.696Z,11.50
2022-11-07T18:13:59.101Z,11.60
2022-11-07T18:16:29.555Z,11.50
2022-11-07T18:18:58.429Z,11.70
2022-11-07T18:21:26.374Z,11.70
2022-11-07T18:23:54.573Z,11.70
2022-11-07T18:26:25.310Z,11.70
2022-11-07T18:28:54.089Z,11.60
2022-11-07T18:31:22.866Z,11.50
2022-11-07T18:33:56.594Z,11.50
2022-11-07T18:36:24.573Z,11.40
2022-11-07T18:38:52.515Z,11.30
2022-11-07T18:41:21.508Z,11.30
2022-11-07T18:43:49.782Z,11.30
2022-11-07T18:46:19.360Z,11.20
2022-11-07T18:48:47.720Z,11.20
2022-11-07T18:51:18.662Z,11.10
2022-11-07T18:53:46.636Z,11.00
2022-11-07T18:56:15.001Z,11.00
2022-11-07T18:58:43.151Z,10.90
2022-11-07T19:01:12.503Z,10.80
2022-11-07T19:03:41.066Z,10.60
2022-11-07T19:06:09.834Z,10.50
2022-11-07T19:08:40.041Z,10.50
2022-11-07T19:11:09.047Z,10.40
2022-11-07T19:13:37.615Z,10.30
2022-11-07T19:16:06.285Z,10.30
2022-11-07T19:18:34.306Z,10.20
2022-11-07T19:21:03.712Z,10.20
2022-11-07T19:23:31.677Z,10.10
2022-11-07T19:26:01.089Z,10.10
2022-11-07T19:28:29.048Z,10.10
2022-11-07T19:30:57.798Z,10.10
2022-11-07T19:33:26.472Z,10.00
2022-11-07T19:35:58.759Z,10.00
2022-11-07T19:38:26.683Z,9.90
2022-11-07T19:40:54.705Z,9.90
2022-11-07T19:43:24.058Z,9.90
2022-11-07T19:45:52.073Z,9.80
2022-11-07T19:48:20.404Z,9.80
2022-11-07T19:50:48.366Z,9.80
2022-11-07T19:53:16.876Z,9.90
2022-11-07T19:55:44.977Z,9.90
2022-11-07T19:58:12.945Z,10.00
2022-11-07T20:00:42.389Z,10.10
2022-11-07T20:03:10.459Z,10.30
2022-11-07T20:05:39.413Z,10.30
2022-11-07T20:08:07.372Z,10.50
2022-11-07T20:10:35.373Z,10.50
2022-11-07T20:13:03.309Z,10.60
2022-11-07T20:15:31.232Z,10.60
2022-11-07T20:18:00.654Z,10.50
2022-11-07T20:20:28.647Z,10.50
2022-11-07T20:22:56.707Z,10.50
2022-11-07T20:25:24.630Z,10.40
2022-11-07T20:27:52.579Z,10.30
2022-11-07T20:30:20.626Z,10.40
2022-11-07T20:32:48.612Z,10.50
2022-11-07T20:35:18.131Z,10.50
2022-11-07T20:37:46.056Z,10.50
2022-11-07T20:40:14.910Z,10.50
2022-11-07T20:42:43.032Z,10.50
2022-11-07T20:45:13.331Z,10.50
2022-11-07T20:47:41.326Z,10.40
2022-11-07T20:50:09.532Z,10.40
2022-11-07T20:52:39.542Z,10.30
2022-11-07T20:55:07.720Z,10.20
2022-11-07T20:57:35.678Z,10.10
2022-11-07T21:00:03.897Z,10.00
2022-11-07T21:02:31.941Z,10.00
2022-11-07T21:07:49.293Z,9.80
2022-11-07T21:10:17.308Z,9.70
2022-11-07T21:12:45.241Z,9.80
2022-11-07T21:15:13.868Z,9.80
2022-11-07T21:17:41.879Z,9.80
2022-11-07T21:20:10.298Z,9.70
2022-11-07T21:22:38.233Z,9.70
2022-11-07T21:25:08.363Z,9.70
2022-11-07T21:27:36.417Z,9.70
2022-11-07T21:30:05.636Z,9.70
2022-11-07T21:32:35.929Z,9.70
2022-11-07T21:35:03.925Z,9.70
2022-11-07T21:37:31.860Z,9.60
2022-11-07T21:39:59.851Z,9.60
2022-11-07T21:42:29.258Z,9.50
2022-11-07T21:44:57.177Z,9.50
2022-11-07T21:47:25.141Z,9.40
2022-11-07T21:49:53.131Z,9.50
2022-11-07T21:52:21.169Z,9.50
2022-11-07T21:54:50.129Z,9.60
2022-11-07T21:57:18.095Z,9.70
2022-11-07T21:59:47.494Z,9.70
2022-11-07T22:02:15.509Z,9.70
2022-11-07T22:04:43.561Z,9.60
2022-11-07T22:07:11.502Z,9.60
2022-11-07T22:09:41.806Z,9.50
2022-11-07T22:12:09.736Z,9.40
2022-11-07T22:14:37.704Z,9.50
2022-11-07T22:17:07.081Z,9.50
2022-11-07T22:19:35.028Z,9.50
2022-11-07T22:22:03.730Z,9.50
2022-11-07T22:24:32.059Z,9.40
2022-11-07T22:27:01.172Z,9.40
2022-11-07T22:29:29.217Z,9.20
2022-11-07T22:31:57.181Z,9.20
2022-11-07T22:34:26.516Z,9.20
2022-11-07T22:36:54.524Z,9.30
2022-11-07T22:39:22.528Z,9.50
2022-11-07T22:41:50.460Z,9.50
2022-11-07T22:44:18.367Z,9.60
2022-11-07T22:46:46.306Z,9.60
2022-11-07T22:49:14.228Z,9.50
2022-11-07T22:51:43.625Z,9.50
2022-11-07T22:54:13.028Z,9.40
2022-11-07T22:56:41.165Z,9.40
2022-11-07T22:59:10.336Z,9.30
2022-11-07T23:01:39.354Z,9.30
2022-11-07T23:04:08.049Z,9.30
2022-11-07T23:06:36.035Z,9.30
2022-11-07T23:09:05.443Z,9.30
2022-11-07T23:11:49.780Z,9.30
2022-11-07T23:14:18.836Z,9.20
2022-11-07T23:16:47.908Z,9.30
2022-11-07T23:19:16.659Z,9.30
2022-11-07T23:21:44.679Z,9.40
2022-11-07T23:24:14.599Z,9.40
2022-11-07T23:26:42.728Z,9.40
2022-11-07T23:29:12.037Z,9.40
2022-11-07T23:31:40.400Z,9.50
2022-11-07T23:34:09.028Z,9.50
2022-11-07T23:36:36.995Z,9.40
2022-11-07T23:39:05.962Z,9.30
2022-11-07T23:41:35.814Z,9.30
2022-11-07T23:44:04.067Z,9.30
2022-11-07T23:46:49.192Z,9.30
2022-11-07T23:49:34.576Z,9.30
2022-11-07T23:52:02.612Z,9.30
2022-11-07T23:54:48.877Z,9.20
2022-11-07T23:57:18.216Z,9.20
